Time;durP1;ratioP1;P1;durP2;ratioP2;P2;SDS_P1;SDS_P2;PMS_P1;PMS_P2;Temp;Humidity;BMP_temperature;BMP_pressure;BME280_temperature;BME280_humidity;BME280_pressure;Samples;Min_cycle;Max_cycle;Signal;HPM_P1;HPM_P2
2021/07/01 00:01:04;;;;;;;5.55;2.65;;;;;;;21.11;53.79;101563.38;4999366;28;20030;-83
2021/07/01 00:03:31;;;;;;;6.78;3.35;;;;;;;21.09;53.92;101557.28;5015617;28;20033;-81
2021/07/01 00:05:57;;;;;;;5.38;3.20;;;;;;;21.06;54.02;101557.34;4983196;28;20029;-81
2021/07/01 00:08:23;;;;;;;6.88;3.03;;;;;;;21.05;53.83;101557.34;5016977;28;20056;-83
2021/07/01 00:10:48;;;;;;;5.90;2.97;;;;;;;21.06;54.01;101557.34;4999171;28;20026;-83
2021/07/01 00:13:14;;;;;;;5.05;2.90;;;;;;;21.09;54.09;101557.28;4966661;28;20034;-83
2021/07/01 00:15:39;;;;;;;5.78;3.00;;;;;;;21.11;53.79;101558.13;4982529;28;20026;-84
2021/07/01 00:18:05;;;;;;;5.68;2.90;;;;;;;21.10;53.89;101555.53;4998853;28;20037;-81
2021/07/01 00:20:32;;;;;;;6.47;3.00;;;;;;;21.11;53.87;101565.13;4999067;28;20061;-85
2021/07/01 00:22:57;;;;;;;5.93;2.95;;;;;;;21.09;53.79;101557.28;4998842;28;20484;-82
2021/07/01 00:25:23;;;;;;;5.55;3.10;;;;;;;21.07;53.30;101556.44;4966427;28;20050;-83
2021/07/01 00:27:49;;;;;;;6.18;3.03;;;;;;;21.08;54.08;101552.94;5016209;28;20396;-82
2021/07/01 00:30:17;;;;;;;7.47;2.90;;;;;;;21.08;53.99;101552.09;5016073;28;20141;-82
2021/07/01 00:32:43;;;;;;;5.68;3.00;;;;;;;21.08;53.89;101547.72;4998677;28;20105;-84
2021/07/01 00:35:10;;;;;;;5.60;2.70;;;;;;;21.08;53.92;101550.34;4998457;28;20447;-82
2021/07/01 00:37:36;;;;;;;7.45;3.05;;;;;;;21.12;53.77;101559.00;5015987;28;20084;-82
2021/07/01 00:40:08;;;;;;;6.55;3.20;;;;;;;21.12;53.74;101557.25;4998424;28;20036;-82
2021/07/01 00:42:34;;;;;;;4.80;2.65;;;;;;;21.12;53.76;101556.38;5015508;28;20026;-81
2021/07/01 00:45:00;;;;;;;5.30;3.05;;;;;;;21.10;53.59;101551.19;4982002;28;20033;-84
2021/07/01 00:47:25;;;;;;;5.95;2.78;;;;;;;21.08;53.83;101547.72;5015772;28;20104;-81
2021/07/01 00:49:52;;;;;;;5.63;2.80;;;;;;;21.09;53.85;101544.19;4982071;28;20046;-81
2021/07/01 00:52:18;;;;;;;5.70;2.85;;;;;;;21.08;53.79;101552.09;5014539;28;20029;-83
2021/07/01 00:54:43;;;;;;;5.38;2.72;;;;;;;21.08;53.86;101545.09;5015589;28;20401;-82
2021/07/01 00:57:09;;;;;;;5.90;2.80;;;;;;;21.06;53.93;101552.09;4965911;28;20100;-83
2021/07/01 00:59:36;;;;;;;6.78;3.08;;;;;;;21.10;53.90;101542.44;4998377;28;20025;-82
2021/07/01 01:02:02;;;;;;;10.65;2.88;;;;;;;21.09;53.94;101544.19;5014391;28;20033;-83
2021/07/01 01:04:28;;;;;;;5.63;2.90;;;;;;;21.10;53.96;101551.19;5015538;28;20116;-80
2021/07/01 01:06:53;;;;;;;7.82;3.30;;;;;;;21.08;53.91;101542.50;4982030;28;20172;-84
2021/07/01 01:09:19;;;;;;;6.65;2.97;;;;;;;21.07;53.84;101547.72;5015499;28;20036;-84
2021/07/01 01:11:44;;;;;;;5.30;2.63;;;;;;;21.10;53.77;101548.56;4965532;28;20034;-82
2021/07/01 01:14:10;;;;;;;5.90;2.63;;;;;;;21.09;54.04;101541.59;4997696;28;20021;-83
2021/07/01 01:16:35;;;;;;;6.00;3.08;;;;;;;21.06;53.92;101538.16;5015395;28;20117;-82
2021/07/01 01:19:01;;;;;;;6.95;2.92;;;;;;;21.04;53.81;101540.78;5015643;28;20029;-85
2021/07/01 01:21:28;;;;;;;9.93;3.15;;;;;;;21.04;53.86;101532.09;4981494;28;20372;-83
2021/07/01 01:23:59;;;;;;;7.53;2.85;;;;;;;21.01;54.11;101540.81;4981341;28;20044;-83
2021/07/01 01:26:25;;;;;;;6.70;2.90;;;;;;;20.99;54.00;101532.16;5015272;28;20053;-82
2021/07/01 01:28:52;;;;;;;5.72;2.88;;;;;;;21.01;53.98;101534.72;5015194;28;20026;-83
2021/07/01 01:31:18;;;;;;;5.28;2.90;;;;;;;21.00;54.24;101525.16;5015039;28;20037;-83
2021/07/01 01:33:44;;;;;;;5.30;2.78;;;;;;;20.96;54.06;101529.56;4981316;28;20105;-83
2021/07/01 01:36:10;;;;;;;7.82;3.10;;;;;;;21.00;54.18;101520.78;5013668;28;20029;-83
2021/07/01 01:38:35;;;;;;;6.60;2.88;;;;;;;21.03;53.92;101530.34;4981180;28;20423;-84
2021/07/01 01:41:01;;;;;;;6.53;2.88;;;;;;;21.04;54.10;101527.72;5014890;28;20042;-83
2021/07/01 01:43:26;;;;;;;7.10;2.78;;;;;;;21.05;53.86;101532.03;4997573;28;20022;-83
2021/07/01 01:45:52;;;;;;;7.40;3.35;;;;;;;21.07;53.90;101526.78;4997194;28;20026;-85
2021/07/01 01:48:18;;;;;;;5.47;2.60;;;;;;;21.06;53.90;101533.78;4996954;28;20041;-83
2021/07/01 01:50:44;;;;;;;6.63;3.15;;;;;;;21.06;53.89;101522.47;5014703;28;20030;-83
2021/07/01 01:53:10;;;;;;;6.07;2.80;;;;;;;21.03;54.00;101531.19;5013361;28;20044;-82
2021/07/01 01:55:36;;;;;;;5.03;2.58;;;;;;;21.04;53.93;101527.72;4979931;28;20109;-82
2021/07/01 01:58:03;;;;;;;6.40;2.88;;;;;;;21.08;53.99;101533.78;4997869;28;20071;-84
2021/07/01 02:00:29;;;;;;;4.72;2.60;;;;;;;21.04;53.97;101532.09;4997137;28;20471;-82
2021/07/01 02:02:55;;;;;;;6.88;2.88;;;;;;;21.05;54.09;101533.78;5014646;28;20029;-84
2021/07/01 02:05:21;;;;;;;6.88;2.67;;;;;;;21.05;54.12;101539.03;5014429;28;20025;-81
2021/07/01 02:07:47;;;;;;;6.28;2.70;;;;;;;21.05;54.05;101539.03;5013540;28;20201;-80
2021/07/01 02:10:21;;;;;;;5.03;2.85;;;;;;;21.05;53.92;101534.66;5013024;28;20034;-82
2021/07/01 02:12:47;;;;;;;4.13;2.30;;;;;;;21.05;54.03;101533.78;5014286;28;20033;-81
2021/07/01 02:15:16;;;;;;;7.43;3.00;;;;;;;21.02;53.96;101541.69;5014241;28;20538;-83
2021/07/01 02:17:41;;;;;;;7.25;2.95;;;;;;;21.02;53.90;101537.31;5014128;28;20038;-84
2021/07/01 02:20:11;;;;;;;5.38;2.70;;;;;;;21.06;54.04;101535.53;4980591;28;20084;-82
2021/07/01 02:22:37;;;;;;;4.68;2.45;;;;;;;21.07;53.90;101532.03;5012899;28;20113;-81
2021/07/01 02:25:04;;;;;;;7.97;2.67;;;;;;;21.04;54.08;101542.53;4980216;28;20054;-82
2021/07/01 02:27:29;;;;;;;4.63;2.65;;;;;;;21.07;54.02;101537.25;4964316;28;20130;-83
2021/07/01 02:29:55;;;;;;;6.43;2.40;;;;;;;21.08;54.00;101539.00;4996399;28;20113;-82
2021/07/01 02:32:20;;;;;;;4.63;2.67;;;;;;;21.07;53.98;101538.13;4996454;28;20036;-83
2021/07/01 02:34:46;;;;;;;3.42;2.10;;;;;;;21.06;53.93;101535.53;4996516;28;20030;-82
2021/07/01 02:37:11;;;;;;;4.10;2.30;;;;;;;21.05;54.07;101536.41;4996315;28;20430;-82
2021/07/01 02:39:38;;;;;;;3.38;2.50;;;;;;;21.05;54.00;101541.66;5014113;28;20037;-83
2021/07/01 02:42:04;;;;;;;3.85;2.35;;;;;;;21.04;54.12;101532.94;5013722;28;20392;-83
2021/07/01 02:44:30;;;;;;;4.18;2.42;;;;;;;21.09;53.96;101525.03;5013817;28;20321;-82
2021/07/01 02:46:55;;;;;;;5.40;2.40;;;;;;;21.06;53.92;101525.06;4980334;28;20030;-82
2021/07/01 02:49:21;;;;;;;5.78;2.42;;;;;;;21.02;54.13;101532.09;5013783;28;20057;-81
2021/07/01 02:51:46;;;;;;;4.70;2.67;;;;;;;20.99;54.16;101529.53;4965414;28;20030;-82
2021/07/01 02:54:12;;;;;;;4.85;2.72;;;;;;;20.99;53.98;101526.91;4998884;28;20380;-82
2021/07/01 02:56:40;;;;;;;5.72;2.70;;;;;;;20.98;54.06;101525.16;5013428;28;20030;-83
2021/07/01 02:59:07;;;;;;;7.18;2.75;;;;;;;20.96;54.10;101526.94;5013024;28;20479;-81
2021/07/01 03:01:33;;;;;;;5.60;2.67;;;;;;;20.96;54.17;101511.22;4996298;28;20069;-83
2021/07/01 03:03:59;;;;;;;4.32;2.55;;;;;;;21.02;54.26;101516.38;4996416;28;20503;-82
2021/07/01 03:06:24;;;;;;;5.18;2.58;;;;;;;21.02;54.04;101510.31;4980463;28;20116;-81
2021/07/01 03:08:50;;;;;;;6.20;2.33;;;;;;;20.96;54.07;101519.94;5013951;28;20114;-84
2021/07/01 03:11:15;;;;;;;4.70;2.35;;;;;;;20.99;54.17;101520.78;4980199;28;20068;-83
2021/07/01 03:13:41;;;;;;;5.70;2.42;;;;;;;20.99;54.19;101519.06;4996391;28;20049;-83
2021/07/01 03:16:06;;;;;;;5.88;2.42;;;;;;;20.98;53.96;101529.53;4980071;28;20084;-81
2021/07/01 03:18:31;;;;;;;5.38;2.58;;;;;;;20.94;54.16;101523.47;4995914;28;20369;-83
2021/07/01 03:20:57;;;;;;;5.78;2.40;;;;;;;20.93;54.21;101527.84;4979799;28;20117;-83
2021/07/01 03:23:22;;;;;;;4.10;2.17;;;;;;;20.93;54.21;101517.38;4979685;28;20025;-82
2021/07/01 03:25:48;;;;;;;6.35;2.70;;;;;;;20.98;54.20;101517.31;4963693;28;20032;-84
2021/07/01 03:28:13;;;;;;;5.47;2.50;;;;;;;20.98;54.35;101517.31;4997064;28;20112;-83
2021/07/01 03:30:38;;;;;;;4.40;2.40;;;;;;;20.97;54.13;101520.81;4996268;28;20105;-82
2021/07/01 03:33:04;;;;;;;5.15;2.78;;;;;;;20.94;54.05;101526.94;4979929;28;20026;-82
2021/07/01 03:35:29;;;;;;;6.43;2.60;;;;;;;20.92;54.02;101523.47;4980257;28;20036;-83
2021/07/01 03:37:54;;;;;;;6.30;2.55;;;;;;;20.92;54.06;101523.47;4996487;28;20037;-84
2021/07/01 03:40:20;;;;;;;5.18;2.35;;;;;;;20.93;54.09;101521.75;5014084;28;20535;-82
2021/07/01 03:42:45;;;;;;;8.88;2.78;;;;;;;20.95;54.13;101528.69;4980212;28;20037;-84
2021/07/01 03:45:11;;;;;;;5.55;2.60;;;;;;;20.97;54.17;101518.22;5013872;28;20064;-82
2021/07/01 03:47:36;;;;;;;7.05;3.05;;;;;;;20.97;54.10;101520.81;5012441;28;20383;-84
2021/07/01 03:50:02;;;;;;;5.72;2.75;;;;;;;20.96;54.04;101519.94;5013838;28;20061;-84
2021/07/01 03:52:28;;;;;;;5.80;2.90;;;;;;;20.94;54.11;101516.47;5013900;28;20120;-83
2021/07/01 03:54:53;;;;;;;6.28;3.08;;;;;;;20.91;54.17;101523.53;4980252;28;20041;-84
2021/07/01 03:57:18;;;;;;;5.78;2.75;;;;;;;20.94;54.17;101529.56;5013874;28;20034;-84
2021/07/01 03:59:44;;;;;;;5.65;2.65;;;;;;;20.92;54.15;101525.22;5012433;28;20033;-82
2021/07/01 04:02:09;;;;;;;7.50;3.10;;;;;;;20.95;53.99;101527.84;4979334;28;20025;-81
2021/07/01 04:04:35;;;;;;;5.57;2.72;;;;;;;20.92;54.12;101520.88;4979308;28;20502;-82
2021/07/01 04:07:00;;;;;;;7.30;3.03;;;;;;;20.94;53.83;101526.94;4963335;28;20053;-83
2021/07/01 04:09:25;;;;;;;7.65;2.60;;;;;;;20.94;54.12;101526.09;4995757;28;20052;-82
2021/07/01 04:11:51;;;;;;;8.75;2.90;;;;;;;20.90;54.27;101520.00;4979215;28;20477;-83
2021/07/01 04:14:18;;;;;;;7.43;2.97;;;;;;;20.92;53.92;101527.84;4979242;28;20034;-83
2021/07/01 04:16:45;;;;;;;7.32;3.20;;;;;;;20.96;54.07;101530.41;4995559;28;20026;-85
2021/07/01 04:19:10;;;;;;;9.27;3.13;;;;;;;20.96;53.97;101537.41;4997737;28;20472;-83
2021/07/01 04:21:36;;;;;;;6.07;2.88;;;;;;;20.98;54.28;101529.53;4982651;28;20040;-83
2021/07/01 04:24:01;;;;;;;5.93;3.00;;;;;;;20.99;53.92;101532.16;5016701;28;20033;-84
2021/07/01 04:26:27;;;;;;;6.88;3.00;;;;;;;21.03;53.95;101539.03;4983239;28;20025;-82
2021/07/01 04:28:52;;;;;;;5.65;2.80;;;;;;;21.02;54.12;101526.84;4999195;28;20038;-83
2021/07/01 04:31:19;;;;;;;5.43;3.00;;;;;;;21.00;54.03;101525.16;4998904;28;20048;-83
2021/07/01 04:33:45;;;;;;;5.82;3.00;;;;;;;20.95;53.91;101531.31;5016249;28;20594;-89
2021/07/01 04:36:10;;;;;;;5.30;2.95;;;;;;;20.98;54.20;101538.25;4982386;28;20032;-82
2021/07/01 04:38:36;;;;;;;5.25;2.85;;;;;;;20.99;54.19;101533.88;4966298;28;20026;-82
2021/07/01 04:41:01;;;;;;;7.63;3.15;;;;;;;20.99;53.94;101534.75;4966311;28;20029;-86
2021/07/01 04:43:27;;;;;;;5.85;3.45;;;;;;;20.99;54.19;101532.16;4982420;28;20041;-86
2021/07/01 04:45:52;;;;;;;7.63;3.10;;;;;;;20.97;54.07;101531.28;4966131;28;20037;-86
2021/07/01 04:48:18;;;;;;;7.53;3.20;;;;;;;21.01;53.97;101529.47;4982101;28;20388;-83
2021/07/01 04:50:43;;;;;;;7.35;2.92;;;;;;;21.03;53.97;101530.34;4982311;28;20396;-83
2021/07/01 04:53:09;;;;;;;7.32;3.28;;;;;;;21.03;54.09;101527.72;5015732;28;20499;-85
2021/07/01 04:55:34;;;;;;;8.20;2.97;;;;;;;21.03;54.00;101527.72;4981706;28;20033;-82
2021/07/01 04:57:59;;;;;;;6.88;3.20;;;;;;;21.01;54.11;101525.09;4982043;28;20038;-83
2021/07/01 05:00:25;;;;;;;5.25;2.83;;;;;;;21.02;54.03;101523.38;4982287;28;20029;-82
2021/07/01 05:02:50;;;;;;;5.03;3.22;;;;;;;21.02;54.07;101515.53;4998992;28;20554;-85
2021/07/01 05:05:16;;;;;;;6.07;2.97;;;;;;;21.00;54.20;101522.53;4998925;28;20464;-90
2021/07/01 05:07:45;;;;;;;8.48;3.28;;;;;;;20.96;54.07;101532.16;4967939;28;20030;-87
2021/07/01 05:10:12;;;;;;;9.00;3.03;;;;;;;20.95;54.09;101543.53;4985444;28;20030;-87
2021/07/01 05:12:38;;;;;;;7.30;3.20;;;;;;;20.97;54.00;101536.53;5004592;28;20035;-90
2021/07/01 05:15:04;;;;;;;5.10;2.97;;;;;;;20.98;53.96;101540.00;5001555;28;20029;-89
2021/07/01 05:17:30;;;;;;;6.13;3.40;;;;;;;20.99;53.97;101540.00;5001396;28;20073;-90
2021/07/01 05:19:55;;;;;;;8.18;3.63;;;;;;;21.00;53.83;101538.25;5000506;28;20030;-89
2021/07/01 05:22:21;;;;;;;6.25;3.45;;;;;;;21.01;53.95;101543.44;4982577;28;20030;-88
2021/07/01 05:24:46;;;;;;;10.00;3.88;;;;;;;21.07;53.95;101532.88;5018380;28;20475;-91
2021/07/01 05:27:12;;;;;;;30.95;8.32;;;;;;;21.07;53.99;101532.03;4983530;28;20171;-91
2021/07/01 05:29:37;;;;;;;19.02;6.30;;;;;;;21.03;54.06;101539.03;4998157;28;20436;-90
2021/07/01 05:32:02;;;;;;;15.52;6.93;;;;;;;21.00;54.21;101538.25;4965428;28;20030;-88
2021/07/01 05:34:28;;;;;;;21.77;7.07;;;;;;;20.95;54.30;101536.53;4981709;28;20482;-91
2021/07/01 05:36:53;;;;;;;22.90;7.05;;;;;;;20.95;54.10;101536.53;4981413;28;20577;-87
2021/07/01 05:39:19;;;;;;;22.25;7.22;;;;;;;20.92;54.00;101541.78;4981327;28;20430;-87
2021/07/01 05:41:44;;;;;;;23.70;6.65;;;;;;;20.96;54.13;101535.63;5015206;28;20080;-89
2021/07/01 05:44:09;;;;;;;19.95;6.38;;;;;;;20.98;54.25;101532.16;4981228;28;20056;-87
2021/07/01 05:46:35;;;;;;;23.40;7.97;;;;;;;20.84;54.00;101542.78;4981060;28;20113;-89
2021/07/01 05:49:00;;;;;;;20.90;7.35;;;;;;;20.78;54.31;101542.88;4981015;28;20108;-89
2021/07/01 05:51:28;;;;;;;27.92;8.05;;;;;;;20.80;53.88;101539.34;4981140;28;20084;-89
2021/07/01 05:56:36;;;;;;;23.45;8.02;;;;;;;20.82;53.66;101536.69;5014987;28;20029;-86
2021/07/01 05:59:09;;;;;;;23.45;7.85;;;;;;;20.80;53.40;101541.09;4998184;28;20041;-87
2021/07/01 06:01:36;;;;;;;27.37;8.67;;;;;;;20.78;53.45;101540.25;4997158;28;20032;-87
2021/07/01 06:04:08;;;;;;;27.95;8.43;;;;;;;20.77;53.39;101541.97;4996960;28;20491;-85
2021/07/01 06:06:36;;;;;;;24.98;8.85;;;;;;;20.76;53.34;101548.09;4980789;28;20472;-83
2021/07/01 06:09:06;;;;;;;27.63;8.93;;;;;;;20.72;53.20;101547.25;5014893;28;20060;-83
2021/07/01 06:11:33;;;;;;;34.80;9.13;;;;;;;20.74;53.31;101544.66;4980941;28;20026;-85
2021/07/01 06:14:00;;;;;;;25.13;9.20;;;;;;;20.70;53.17;101551.66;4997543;28;20022;-87
2021/07/01 06:16:28;;;;;;;29.52;9.10;;;;;;;20.43;53.30;101554.53;4998322;28;20056;-86
2021/07/01 06:18:54;;;;;;;28.75;9.18;;;;;;;20.56;53.20;101553.53;4997907;28;20029;-85
2021/07/01 06:21:20;;;;;;;29.95;9.13;;;;;;;20.59;53.24;101556.13;4981242;28;20033;-87
2021/07/01 06:23:47;;;;;;;25.67;9.05;;;;;;;20.65;53.21;101550.84;5016725;28;20037;-86
2021/07/01 06:26:14;;;;;;;28.25;9.13;;;;;;;20.64;52.98;101549.09;4982161;28;20030;-87
2021/07/01 06:28:43;;;;;;;31.25;8.93;;;;;;;20.71;53.00;101553.41;4997215;28;20030;-85
2021/07/01 06:31:09;;;;;;;30.13;9.35;;;;;;;20.47;53.49;101551.00;4997330;28;20113;-86
2021/07/01 06:33:38;;;;;;;28.00;8.57;;;;;;;20.53;53.39;101545.69;4996831;28;20491;-87
2021/07/01 06:36:07;;;;;;;27.13;8.93;;;;;;;20.51;53.28;101548.34;4965143;28;20030;-87
2021/07/01 06:38:35;;;;;;;31.73;9.60;;;;;;;20.65;52.86;101549.97;5014560;28;20037;-86
2021/07/01 06:41:03;;;;;;;27.38;9.07;;;;;;;20.81;52.80;101554.13;4980114;28;20088;-86
2021/07/01 06:43:29;;;;;;;24.42;8.40;;;;;;;20.68;52.56;101547.31;5013046;28;20113;-86
2021/07/01 06:45:56;;;;;;;26.60;8.48;;;;;;;20.82;52.28;101536.69;4964170;28;20036;-88
2021/07/01 06:48:23;;;;;;;28.95;8.75;;;;;;;20.89;51.83;101544.47;4996688;28;20046;-90
2021/07/01 06:50:52;;;;;;;27.35;8.55;;;;;;;20.74;52.38;101548.13;4965155;28;20069;-87
2021/07/01 06:53:20;;;;;;;24.98;8.52;;;;;;;20.94;52.00;101547.00;4996241;28;20029;-88
2021/07/01 06:55:45;;;;;;;27.67;8.50;;;;;;;21.15;51.64;101546.75;4996057;28;20037;-88
2021/07/01 06:58:11;;;;;;;20.60;7.47;;;;;;;21.44;51.02;101542.88;4980106;28;20375;-88
2021/07/01 07:00:37;;;;;;;22.95;7.35;;;;;;;21.68;50.28;101546.88;4979816;28;20084;-85
2021/07/01 07:03:05;;;;;;;18.90;7.18;;;;;;;21.66;50.42;101547.81;5013716;28;20022;-86
2021/07/01 07:05:30;;;;;;;20.08;7.35;;;;;;;21.53;50.93;101547.13;4980025;28;20474;-85
2021/07/01 07:07:56;;;;;;;18.63;7.63;;;;;;;21.42;51.57;101549.88;4979785;28;20121;-84
2021/07/01 07:10:22;;;;;;;17.40;7.10;;;;;;;21.38;51.88;101556.03;4996049;28;20391;-85
2021/07/01 07:12:49;;;;;;;13.73;6.72;;;;;;;21.36;51.82;101550.84;5012405;28;20052;-85
2021/07/01 07:15:27;;;;;;;17.48;6.85;;;;;;;21.36;51.64;101561.31;5012391;28;20022;-86
2021/07/01 07:17:53;;;;;;;11.85;6.40;;;;;;;21.33;51.84;101550.84;5012296;28;20084;-87
2021/07/01 07:20:22;;;;;;;14.88;6.30;;;;;;;21.33;52.19;101555.22;4963795;28;20494;-87
2021/07/01 07:22:49;;;;;;;18.88;6.45;;;;;;;21.36;51.84;101556.06;5013553;28;20037;-84
2021/07/01 07:25:15;;;;;;;14.45;6.03;;;;;;;21.39;52.02;101565.63;4979782;28;20026;-84
2021/07/01 07:27:53;;;;;;;12.95;6.05;;;;;;;21.50;51.67;101563.75;4979631;28;20062;-83
2021/07/01 07:30:19;;;;;;;14.93;6.38;;;;;;;21.51;51.80;101567.22;4997661;28;20033;-85
2021/07/01 07:32:45;;;;;;;14.85;6.60;;;;;;;21.50;51.64;101566.38;4979617;28;20084;-85
2021/07/01 07:35:11;;;;;;;17.02;6.40;;;;;;;;;;4979517;28;20022;-84
2021/07/01 07:37:37;;;;;;;13.45;5.65;;;;;;;21.48;51.85;101569.91;5013515;28;20422;-85
2021/07/01 07:40:04;;;;;;;15.13;5.80;;;;;;;21.47;51.64;101578.63;4979492;28;20064;-85
2021/07/01 07:42:31;;;;;;;14.23;5.95;;;;;;;21.47;51.75;101576.91;4995701;28;20033;-85
2021/07/01 07:44:58;;;;;;;13.25;6.13;;;;;;;21.47;51.86;101573.38;4979636;28;20030;-85
2021/07/01 07:47:23;;;;;;;16.08;6.18;;;;;;;21.50;51.88;101578.59;5011674;28;20026;-86
2021/07/01 07:49:48;;;;;;;17.65;6.63;;;;;;;21.56;51.47;101574.13;4995514;28;20139;-85
2021/07/01 07:52:14;;;;;;;11.82;5.63;;;;;;;21.65;51.49;101578.38;4963457;28;20045;-85
2021/07/01 07:54:47;;;;;;;14.73;6.15;;;;;;;21.70;51.35;101579.16;4998693;28;20057;-86
2021/07/01 07:57:13;;;;;;;11.48;5.78;;;;;;;21.74;51.14;101580.84;4999492;28;20030;-84
2021/07/01 07:59:43;;;;;;;12.57;5.82;;;;;;;21.70;51.30;101575.69;4983318;28;20034;-85
2021/07/01 08:02:27;;;;;;;12.18;5.93;;;;;;;21.75;51.27;101584.31;5017108;28;20026;-85
2021/07/01 08:04:52;;;;;;;14.23;5.97;;;;;;;21.82;50.90;101585.09;4999443;28;20022;-85
2021/07/01 08:07:18;;;;;;;13.25;5.90;;;;;;;21.78;51.15;101579.91;4983055;28;20502;-85
2021/07/01 08:09:44;;;;;;;13.32;6.55;;;;;;;21.78;51.23;101569.44;4999553;28;20126;-84
2021/07/01 08:12:10;;;;;;;11.45;5.88;;;;;;;21.67;51.60;101581.84;4983257;28;20034;-86
2021/07/01 08:14:41;;;;;;;14.27;6.22;;;;;;;21.60;51.73;101584.56;4999134;28;20026;-85
2021/07/01 08:17:07;;;;;;;12.50;6.00;;;;;;;21.62;51.50;101582.78;4998924;28;20089;-85
2021/07/01 08:19:35;;;;;;;11.82;5.93;;;;;;;21.63;51.71;101584.53;4998906;28;20484;-86
2021/07/01 08:22:00;;;;;;;13.02;5.95;;;;;;;21.66;51.47;101581.84;4982528;28;20060;-85
2021/07/01 08:24:26;;;;;;;14.32;5.82;;;;;;;21.64;51.40;101578.38;4966881;28;20030;-85
2021/07/01 08:26:51;;;;;;;14.30;6.50;;;;;;;21.70;51.49;101587.03;4982523;28;20428;-86
2021/07/01 08:29:17;;;;;;;12.95;5.85;;;;;;;21.75;51.03;101584.31;4998888;28;20056;-85
2021/07/01 08:31:46;;;;;;;14.43;5.45;;;;;;;21.75;51.01;101585.22;4999183;28;20030;-85
2021/07/01 08:34:14;;;;;;;14.10;6.03;;;;;;;21.71;51.13;101588.78;4983949;28;20022;-86
2021/07/01 08:36:44;;;;;;;12.52;5.88;;;;;;;21.68;51.22;101585.31;5002726;28;20097;-85
2021/07/01 08:39:09;;;;;;;12.57;5.28;;;;;;;21.63;51.31;101581.91;5028837;28;20030;-85
2021/07/01 08:41:36;;;;;;;12.73;5.32;;;;;;;21.64;51.48;101591.50;5009763;28;20061;-85
2021/07/01 08:44:08;;;;;;;12.48;6.13;;;;;;;21.64;51.64;101589.72;4984065;28;20030;-85
2021/07/01 08:46:49;;;;;;;11.02;5.47;;;;;;;21.66;51.57;101590.56;4998902;28;20132;-86
2021/07/01 08:49:34;;;;;;;11.07;5.70;;;;;;;21.69;51.41;101589.69;4998436;28;20042;-87
2021/07/01 08:52:09;;;;;;;13.82;5.60;;;;;;;21.68;51.51;101593.19;4998569;28;20064;-86
2021/07/01 08:54:36;;;;;;;12.77;6.22;;;;;;;21.77;51.31;101598.28;4998174;28;20380;-86
2021/07/01 08:57:04;;;;;;;14.82;5.70;;;;;;;21.78;51.18;101594.78;4998076;28;20038;-87
2021/07/01 08:59:44;;;;;;;12.00;5.63;;;;;;;21.81;50.98;101602.59;5014503;28;20037;-86
2021/07/01 09:02:12;;;;;;;12.90;5.60;;;;;;;21.80;51.29;101597.34;4998093;28;20026;-85
2021/07/01 09:04:56;;;;;;;11.85;5.50;;;;;;;21.90;51.22;101585.84;4981475;28;20025;-85
2021/07/01 09:07:26;;;;;;;12.32;5.93;;;;;;;22.10;50.59;101599.53;4997924;28;20121;-86
2021/07/01 09:10:04;;;;;;;13.15;5.75;;;;;;;22.23;50.34;101604.56;4981585;28;20041;-85
2021/07/01 09:12:30;;;;;;;12.95;6.15;;;;;;;22.47;49.67;101596.31;4997907;28;20030;-85
2021/07/01 09:15:06;;;;;;;8.23;5.18;;;;;;;22.62;49.09;101599.50;4981439;28;20041;-85
2021/07/01 09:17:33;;;;;;;10.45;5.47;;;;;;;22.57;49.33;101603.09;5013927;28;20037;-85
2021/07/01 09:20:03;;;;;;;11.93;5.35;;;;;;;22.71;48.93;101605.47;5013956;28;20022;-85
2021/07/01 09:22:29;;;;;;;10.35;5.90;;;;;;;22.72;49.11;101599.31;4997798;28;20025;-85
2021/07/01 09:24:56;;;;;;;8.50;5.25;;;;;;;22.74;48.90;101600.16;4997598;28;20532;-85
2021/07/01 09:27:23;;;;;;;9.15;5.32;;;;;;;22.77;49.00;101597.47;4981503;28;20044;-85
2021/07/01 09:29:50;;;;;;;14.23;5.65;;;;;;;22.62;49.76;101591.66;4981540;28;20030;-85
2021/07/01 09:32:18;;;;;;;11.25;6.00;;;;;;;22.44;50.06;101592.84;5016050;28;20026;-84
2021/07/01 09:34:46;;;;;;;11.77;5.75;;;;;;;22.46;49.87;101589.31;4997322;28;20463;-84
2021/07/01 09:37:11;;;;;;;12.30;5.60;;;;;;;22.49;49.62;101591.84;4997988;28;20042;-85
2021/07/01 09:39:37;;;;;;;10.80;6.00;;;;;;;22.69;49.31;101596.75;4981021;28;20025;-84
2021/07/01 09:42:04;;;;;;;11.15;5.75;;;;;;;22.71;49.03;101591.47;4997148;28;20026;-85
2021/07/01 09:44:32;;;;;;;9.77;5.10;;;;;;;22.71;49.13;101594.97;4997124;28;20037;-84
2021/07/01 09:46:59;;;;;;;12.23;5.60;;;;;;;22.63;49.37;101602.13;4997582;28;20080;-85
2021/07/01 09:49:36;;;;;;;9.18;5.68;;;;;;;22.46;49.89;101589.31;5014750;28;20488;-85
2021/07/01 09:52:05;;;;;;;7.55;5.25;;;;;;;22.49;49.94;101589.25;5013506;28;20038;-85
2021/07/01 09:54:33;;;;;;;10.60;5.88;;;;;;;22.36;50.11;101596.50;5014619;28;20032;-85
2021/07/01 09:57:04;;;;;;;10.30;5.53;;;;;;;22.35;50.19;101597.38;4964995;28;20038;-85
2021/07/01 09:59:35;;;;;;;10.10;5.75;;;;;;;22.17;50.80;101602.91;5013491;28;20022;-85
2021/07/01 10:02:15;;;;;;;11.55;5.57;;;;;;;22.08;51.02;101597.78;4998416;28;20033;-85
2021/07/01 10:04:45;;;;;;;12.32;6.00;;;;;;;22.13;50.86;101604.69;4998015;28;20041;-85
2021/07/01 10:07:14;;;;;;;12.13;6.13;;;;;;;22.21;50.47;101604.59;4982004;28;20065;-85
2021/07/01 10:09:40;;;;;;;13.05;6.10;;;;;;;22.29;50.20;101609.72;4998400;28;20483;-84
2021/07/01 10:12:23;;;;;;;11.40;5.53;;;;;;;22.26;50.52;101607.16;4982498;28;20037;-86
2021/07/01 10:14:51;;;;;;;12.55;5.82;;;;;;;22.21;50.64;101611.56;4998141;28;20471;-85
2021/07/01 10:17:19;;;;;;;10.43;5.22;;;;;;;22.32;50.64;101602.69;5013611;28;20042;-85
2021/07/01 10:19:46;;;;;;;9.60;5.40;;;;;;;22.35;50.32;101605.22;5014870;28;20030;-85
2021/07/01 10:22:16;;;;;;;11.02;5.85;;;;;;;22.35;50.42;101612.25;5013814;28;20451;-85
2021/07/01 10:24:53;;;;;;;9.68;5.10;;;;;;;22.36;50.49;101606.09;4981808;28;20037;-85
2021/07/01 10:27:34;;;;;;;9.65;5.28;;;;;;;22.35;50.71;101613.09;5015027;28;20537;-84
2021/07/01 10:30:11;;;;;;;9.00;5.18;;;;;;;22.34;50.68;101621.88;4999024;28;20025;-84
2021/07/01 10:32:42;;;;;;;10.18;5.05;;;;;;;22.28;50.74;101624.59;4999003;28;20052;-84
2021/07/01 10:35:30;;;;;;;9.68;5.07;;;;;;;22.28;50.93;101624.59;4983183;28;20028;-85
2021/07/01 10:38:17;;;;;;;11.82;5.47;;;;;;;22.28;50.68;101626.34;4999528;28;20030;-84
2021/07/01 10:40:51;;;;;;;11.65;5.35;;;;;;;22.21;51.02;101636.06;4997352;28;20030;-84
2021/07/01 10:43:19;;;;;;;11.48;5.70;;;;;;;22.22;50.98;101632.56;4998016;28;20032;-85
2021/07/01 10:45:52;;;;;;;8.98;5.40;;;;;;;22.26;50.94;101629.00;4997773;28;20116;-84
2021/07/01 10:48:19;;;;;;;11.95;5.22;;;;;;;22.23;50.76;101636.88;4977637;28;20042;-84
2021/07/01 10:50:47;;;;;;;10.77;5.00;;;;;;;22.21;50.85;101628.19;5010279;28;20108;-83
2021/07/01 10:53:35;;;;;;;9.68;5.15;;;;;;;22.18;51.21;101631.69;5010468;28;20109;-84
2021/07/01 10:56:20;;;;;;;8.82;4.97;;;;;;;22.18;51.01;101630.84;5010618;28;20086;-85
2021/07/01 10:58:57;;;;;;;10.27;4.95;;;;;;;22.17;51.08;101635.22;4993669;28;20041;-85
2021/07/01 11:01:33;;;;;;;9.43;5.20;;;;;;;22.15;51.05;101626.50;4994268;28;20027;-85
2021/07/01 11:04:19;;;;;;;9.20;4.78;;;;;;;22.17;51.00;101627.34;4994499;28;20038;-84
2021/07/01 11:07:03;;;;;;;11.63;5.68;;;;;;;22.21;50.77;101625.56;4993893;28;20041;-84
2021/07/01 11:09:41;;;;;;;9.38;4.85;;;;;;;22.19;50.78;101632.59;4993477;28;20022;-84
2021/07/01 11:12:07;;;;;;;8.98;4.97;;;;;;;22.09;51.08;101626.59;4976454;28;20029;-85
2021/07/01 11:14:47;;;;;;;10.85;4.78;;;;;;;22.03;51.64;101642.41;4992635;28;20026;-85
2021/07/01 11:17:12;;;;;;;12.50;5.53;;;;;;;22.07;51.35;101632.78;4992585;28;20034;-86
2021/07/01 11:19:40;;;;;;;8.73;5.00;;;;;;;22.15;51.12;101626.50;4992632;28;20357;-86
2021/07/01 11:22:08;;;;;;;10.10;5.18;;;;;;;22.25;50.71;101623.75;4993825;28;20129;-85
2021/07/01 11:24:37;;;;;;;10.05;5.25;;;;;;;22.26;50.88;101631.63;4993805;28;20033;-86
2021/07/01 11:27:03;;;;;;;10.63;5.40;;;;;;;22.23;50.84;101631.66;4977845;28;20366;-85